Terminal Aerodrome Forecast
Issued by NWS Cleveland, OH

Home | Current Version | Previous Version | Text Only | Print | Product List | Glossary Off
Versions: 1 2 3 4 5 6 7 8 9 10 11 12

000
FTUS41 KCLE 292341
TAFTOL
TAF
KTOL 292341Z 3000/3024 28008KT 6SM BR SCT040 BKN100
     FM300500 26006KT P6SM SKC
      TEMPO 3011/3014 6SM HZ
     FM301700 27012G20KT P6SM SKC
     FM302300 27010KT P6SM SKC=

USA.gov is the U.S. government's official web portal to all federal, state and local government web resources and services.